createdAt,value
2023-01-18T00:05:14.436Z,2.60
2023-01-18T00:15:17.592Z,2.22
2023-01-18T00:25:23.414Z,2.40
2023-01-18T00:35:27.320Z,2.45
2023-01-18T00:45:31.550Z,1.83
2023-01-18T00:55:34.280Z,1.83
2023-01-18T01:05:56.448Z,2.05
2023-01-18T01:16:17.014Z,2.60
2023-01-18T01:26:21.245Z,2.20
2023-01-18T01:36:25.879Z,2.55
2023-01-18T01:46:36.371Z,1.58
2023-01-18T01:56:39.613Z,2.50
2023-01-18T02:06:43.699Z,2.17
2023-01-18T02:17:02.596Z,1.95
2023-01-18T02:27:08.204Z,2.50
2023-01-18T02:37:25.025Z,2.83
2023-01-18T02:47:29.860Z,2.92
2023-01-18T02:57:34.928Z,2.38
2023-01-18T03:07:45.849Z,3.13
2023-01-18T03:17:53.322Z,3.13
2023-01-18T03:28:15.238Z,2.67
2023-01-18T03:38:21.255Z,2.85
2023-01-18T03:48:24.006Z,3.53
2023-01-18T03:58:35.020Z,3.70
2023-01-18T04:18:41.705Z,3.85
2023-01-18T04:28:44.452Z,3.47
2023-01-18T04:38:48.518Z,3.55
2023-01-18T04:48:52.490Z,3.63
2023-01-18T04:58:56.941Z,4.55
2023-01-18T05:08:59.560Z,4.10
2023-01-18T05:19:04.687Z,4.00
2023-01-18T05:29:07.449Z,3.75
2023-01-18T05:39:12.432Z,3.40
2023-01-18T05:49:15.347Z,3.33
2023-01-18T05:59:19.382Z,4.60
2023-01-18T06:09:22.294Z,4.45
2023-01-18T06:19:26.302Z,4.75
2023-01-18T06:29:28.948Z,5.32
2023-01-18T06:39:32.991Z,4.50
2023-01-18T06:49:35.748Z,5.38
2023-01-18T06:59:40.127Z,5.38
2023-01-18T07:09:42.831Z,5.40
2023-01-18T07:19:47.001Z,5.25
2023-01-18T07:29:49.681Z,5.72
2023-01-18T07:39:53.733Z,4.15
2023-01-18T07:49:56.383Z,5.47
2023-01-18T08:00:00.458Z,5.22
2023-01-18T08:10:03.289Z,5.40
2023-01-18T08:20:09.421Z,5.18
2023-01-18T08:30:13.007Z,5.22
2023-01-18T08:40:17.343Z,5.55
2023-01-18T08:50:20.254Z,6.03
2023-01-18T09:00:26.930Z,5.18
2023-01-18T09:10:29.771Z,5.75
2023-01-18T09:20:35.912Z,4.97
2023-01-18T09:30:38.763Z,5.45
2023-01-18T09:40:46.055Z,4.80
2023-01-18T09:50:48.846Z,6.10
2023-01-18T10:00:56.529Z,4.97
2023-01-18T10:11:09.827Z,5.57
2023-01-18T10:21:21.177Z,5.00
2023-01-18T10:31:36.168Z,3.38
2023-01-18T10:41:42.287Z,4.65
2023-01-18T10:51:46.272Z,4.35
2023-01-18T11:01:55.494Z,4.72
2023-01-18T11:12:36.750Z,3.97
2023-01-18T11:32:59.800Z,4.00
2023-01-18T11:43:12.461Z,2.95
2023-01-18T11:53:22.410Z,3.10
2023-01-18T12:03:54.328Z,2.58
2023-01-18T12:14:01.460Z,3.60
2023-01-18T12:24:17.329Z,2.67
2023-01-18T12:34:24.190Z,4.80
2023-01-18T12:44:47.781Z,3.70
2023-01-18T12:54:56.085Z,3.55
2023-01-18T13:05:04.951Z,3.45
2023-01-18T13:15:20.621Z,3.50
2023-01-18T13:25:35.183Z,3.60
2023-01-18T13:35:38.333Z,3.50
2023-01-18T13:46:03.002Z,3.38
2023-01-18T13:56:34.066Z,3.60
2023-01-18T14:06:43.723Z,2.85
2023-01-18T14:16:56.399Z,2.33
2023-01-18T14:27:01.708Z,2.83
2023-01-18T14:37:05.319Z,2.65
2023-01-18T14:47:24.025Z,2.22
2023-01-18T14:57:27.255Z,3.08
2023-01-18T15:07:33.844Z,3.10
2023-01-18T15:17:37.619Z,2.30
2023-01-18T15:27:42.946Z,3.03
2023-01-18T15:37:45.680Z,2.25
2023-01-18T15:47:52.896Z,2.28
2023-01-18T15:57:59.895Z,2.50
2023-01-18T16:08:22.644Z,3.08
2023-01-18T16:18:25.735Z,3.47
2023-01-18T16:28:29.891Z,5.47
2023-01-18T16:38:32.841Z,3.40
2023-01-18T16:48:36.995Z,4.30
2023-01-18T16:58:39.732Z,4.22
2023-01-18T17:08:43.774Z,3.78
2023-01-18T17:18:47.975Z,3.47
2023-01-18T17:28:52.050Z,2.30
2023-01-18T17:38:54.991Z,3.35
2023-01-18T17:48:59.087Z,3.30
2023-01-18T17:59:01.841Z,3.75
2023-01-18T18:09:06.079Z,3.42
2023-01-18T18:19:08.790Z,3.97
2023-01-18T18:29:12.859Z,3.40
2023-01-18T18:39:15.557Z,4.13
2023-01-18T18:49:19.553Z,4.20
2023-01-18T18:59:22.241Z,3.58
2023-01-18T19:09:26.503Z,3.75
2023-01-18T19:19:29.348Z,3.22
2023-01-18T19:29:33.424Z,3.88
2023-01-18T19:39:36.372Z,4.40
2023-01-18T19:49:42.817Z,4.40
2023-01-18T19:59:45.479Z,4.47
2023-01-18T20:09:49.571Z,3.85
2023-01-18T20:19:54.082Z,3.40
2023-01-18T20:29:59.096Z,4.05
2023-01-18T20:40:01.834Z,3.80
2023-01-18T20:50:06.905Z,4.30
2023-01-18T21:00:12.485Z,3.78
2023-01-18T21:10:17.240Z,5.55
2023-01-18T21:20:20.056Z,6.15
2023-01-18T21:30:24.360Z,6.38
2023-01-18T21:40:27.244Z,5.53
2023-01-18T21:50:48.937Z,6.70
2023-01-18T22:00:55.050Z,7.75
2023-01-18T22:11:04.261Z,6.47
2023-01-18T22:21:07.139Z,7.68
2023-01-18T22:31:12.271Z,7.18
2023-01-18T22:41:17.612Z,6.70
2023-01-18T22:51:23.943Z,6.55
2023-01-18T23:01:29.003Z,6.78
2023-01-18T23:11:33.263Z,7.95
2023-01-18T23:21:35.915Z,7.80
2023-01-18T23:31:39.951Z,6.18
2023-01-18T23:42:00.401Z,7.55
2023-01-18T23:52:22.176Z,6.37
